Time;durP1;ratioP1;P1;durP2;ratioP2;P2;SDS_P1;SDS_P2;PMS_P1;PMS_P2;Temp;Humidity;BMP_temperature;BMP_pressure;BME280_temperature;BME280_humidity;BME280_pressure;Samples;Min_cycle;Max_cycle;Signal;HPM_P1;HPM_P2
2023/08/11 00:01:15;;;;;;;3.30;0.70;;;14.90;99.90;;;;;;5053819;28;20638;-76
2023/08/11 00:03:46;;;;;;;5.75;0.90;;;15.00;99.90;;;;;;5054552;28;20715;-75
2023/08/11 00:06:16;;;;;;;2.15;0.70;;;15.10;99.90;;;;;;5053768;28;20217;-77
2023/08/11 00:08:47;;;;;;;3.33;0.70;;;15.20;99.90;;;;;;5056951;28;20205;-83
2023/08/11 00:11:20;;;;;;;2.08;0.70;;;15.30;99.90;;;;;;5065541;28;20240;-79
2023/08/11 00:13:51;;;;;;;1.25;0.47;;;15.50;99.90;;;;;;5068778;28;20609;-78
2023/08/11 00:16:22;;;;;;;2.45;0.80;;;15.60;99.90;;;;;;5066747;28;20731;-78
2023/08/11 00:18:53;;;;;;;2.78;0.80;;;15.80;99.90;;;;;;5054356;28;20200;-78
2023/08/11 00:21:23;;;;;;;2.53;0.88;;;15.90;99.90;;;;;;5053865;28;20213;-77
2023/08/11 00:23:54;;;;;;;1.27;0.60;;;15.90;99.90;;;;;;5057385;28;20572;-77
2023/08/11 00:26:27;;;;;;;1.00;0.60;;;16.00;99.90;;;;;;5066632;28;20217;-77
2023/08/11 00:28:58;;;;;;;1.52;0.60;;;16.00;99.90;;;;;;5054063;28;20634;-76
2023/08/11 00:31:28;;;;;;;5.00;0.75;;;16.10;99.90;;;;;;5060200;28;20205;-77
2023/08/11 00:34:00;;;;;;;4.35;0.80;;;16.10;99.90;;;;;;5069934;28;20204;-78
2023/08/11 00:36:30;;;;;;;3.03;0.88;;;16.20;99.90;;;;;;5060605;28;20263;-77
2023/08/11 00:39:01;;;;;;;3.92;1.25;;;16.30;99.90;;;;;;5054199;28;20217;-78
2023/08/11 00:41:34;;;;;;;2.25;0.80;;;16.50;99.90;;;;;;5052275;28;20807;-75
2023/08/11 00:44:05;;;;;;;3.53;0.75;;;16.50;99.90;;;;;;5067628;28;20198;-78
2023/08/11 00:46:36;;;;;;;3.47;0.95;;;16.70;99.90;;;;;;5052074;28;20586;-78
2023/08/11 00:49:09;;;;;;;1.48;0.70;;;16.80;99.90;;;;;;5055439;28;20642;-78
2023/08/11 00:51:40;;;;;;;3.75;0.60;;;16.90;99.90;;;;;;5061692;28;20206;-77
2023/08/11 00:54:12;;;;;;;2.35;0.60;;;17.00;99.90;;;;;;5055300;28;20197;-77
2023/08/11 00:56:47;;;;;;;2.35;0.55;;;17.10;99.90;;;;;;5059665;28;20200;-78
2023/08/11 00:59:20;;;;;;;3.90;2.10;;;17.20;99.90;;;;;;5052286;28;20193;-77
2023/08/11 01:01:50;;;;;;;3.67;0.65;;;17.40;99.90;;;;;;5052706;28;20216;-77
2023/08/11 01:04:22;;;;;;;1.67;0.65;;;17.40;99.90;;;;;;5051287;28;20622;-77
2023/08/11 01:07:00;;;;;;;1.35;0.65;;;17.50;99.90;;;;;;5061105;28;20311;-78
2023/08/11 01:09:41;;;;;;;1.67;0.63;;;17.50;99.90;;;;;;5054997;28;20827;-78
2023/08/11 01:12:21;;;;;;;1.75;0.70;;;17.50;99.90;;;;;;5052333;28;20193;-78
2023/08/11 01:15:03;;;;;;;2.60;0.70;;;17.40;99.90;;;;;;5052395;28;20190;-78
2023/08/11 01:17:35;;;;;;;1.23;0.50;;;17.40;99.90;;;;;;5057989;28;20200;-78
2023/08/11 01:20:10;;;;;;;1.88;0.60;;;17.50;99.90;;;;;;5050436;28;20592;-80
2023/08/11 01:22:43;;;;;;;2.58;0.60;;;17.70;99.90;;;;;;5052623;28;20661;-79
2023/08/11 01:25:16;;;;;;;1.63;0.50;;;17.90;99.90;;;;;;5054614;28;20928;-77
2023/08/11 01:27:48;;;;;;;2.40;1.40;;;18.00;99.90;;;;;;5061618;28;20227;-79
2023/08/11 01:30:19;;;;;;;3.08;0.52;;;18.10;99.90;;;;;;5057370;28;20197;-78
2023/08/11 01:32:50;;;;;;;1.15;0.60;;;18.10;99.90;;;;;;5050215;28;20598;-75
2023/08/11 01:35:21;;;;;;;0.98;0.40;;;18.20;99.90;;;;;;5053441;28;20257;-75
2023/08/11 01:37:52;;;;;;;1.50;0.50;;;18.20;99.90;;;;;;5053038;28;20317;-73
2023/08/11 01:40:25;;;;;;;3.28;0.90;;;18.30;99.90;;;;;;5052556;28;20204;-73
2023/08/11 01:42:57;;;;;;;1.77;0.82;;;18.40;99.90;;;;;;5051636;28;20607;-73
2023/08/11 01:45:29;;;;;;;1.05;0.50;;;18.50;99.90;;;;;;5073319;28;20193;-77
2023/08/11 01:48:01;;;;;;;2.03;0.50;;;18.60;99.90;;;;;;5058376;28;20220;-78
2023/08/11 01:50:33;;;;;;;1.73;0.45;;;18.60;99.90;;;;;;5057915;28;20264;-75
2023/08/11 01:53:03;;;;;;;1.20;0.40;;;18.70;99.90;;;;;;5065181;28;20197;-78
2023/08/11 01:55:37;;;;;;;0.32;0.20;;;18.90;99.90;;;;;;5054695;28;20213;-77
2023/08/11 01:58:09;;;;;;;2.90;0.50;;;19.00;99.90;;;;;;5052148;28;20189;-76
2023/08/11 02:00:40;;;;;;;2.40;0.40;;;19.00;99.90;;;;;;5052116;28;20673;-77
2023/08/11 02:03:12;;;;;;;1.40;0.50;;;18.90;99.90;;;;;;5053780;28;20748;-75
2023/08/11 02:05:43;;;;;;;14.45;2.80;;;18.90;99.90;;;;;;5059845;28;20220;-76
2023/08/11 02:08:17;;;;;;;1.40;0.50;;;18.90;99.90;;;;;;5069947;28;20197;-74
2023/08/11 02:10:50;;;;;;;0.40;0.30;;;19.00;99.90;;;;;;5057452;28;20201;-75
2023/08/11 02:13:21;;;;;;;1.40;0.38;;;19.00;99.90;;;;;;5060823;28;20201;-74
2023/08/11 02:15:53;;;;;;;1.02;0.40;;;18.90;99.90;;;;;;5072924;28;20197;-74
2023/08/11 02:18:24;;;;;;;4.03;0.43;;;18.90;99.90;;;;;;5054319;28;20285;-73
2023/08/11 02:20:55;;;;;;;1.85;0.47;;;19.00;99.90;;;;;;5063435;28;20197;-73
2023/08/11 02:23:26;;;;;;;1.90;0.93;;;19.20;99.90;;;;;;5077264;28;20271;-76
2023/08/11 02:26:00;;;;;;;1.00;0.50;;;19.40;99.90;;;;;;5073582;28;20195;-76
2023/08/11 02:28:33;;;;;;;7.35;5.43;;;19.50;99.90;;;;;;5075595;28;20269;-79
2023/08/11 02:31:04;;;;;;;1.55;0.93;;;19.60;99.90;;;;;;5063086;28;20229;-77
2023/08/11 02:33:35;;;;;;;1.15;0.60;;;19.70;99.90;;;;;;5056436;28;20194;-78
2023/08/11 02:36:06;;;;;;;2.05;0.73;;;19.70;99.90;;;;;;5061209;28;20217;-77
2023/08/11 02:38:38;;;;;;;2.83;1.52;;;19.40;99.90;;;;;;5055770;28;20661;-77
2023/08/11 02:41:11;;;;;;;1.20;0.60;;;19.40;99.90;;;;;;5056489;28;20201;-78
2023/08/11 02:43:42;;;;;;;3.28;1.20;;;19.40;99.90;;;;;;5063203;28;20189;-77
2023/08/11 02:46:13;;;;;;;1.02;0.50;;;19.50;99.90;;;;;;5056124;28;20217;-78
2023/08/11 02:48:44;;;;;;;2.63;1.00;;;19.50;99.90;;;;;;5071489;28;20193;-78
2023/08/11 02:51:15;;;;;;;4.35;1.88;;;19.60;99.90;;;;;;5067057;28;20572;-76
2023/08/11 02:53:46;;;;;;;1.10;0.60;;;19.50;99.90;;;;;;5074011;28;20211;-75
2023/08/11 02:56:18;;;;;;;2.17;0.80;;;19.50;99.90;;;;;;5070235;28;20276;-77
2023/08/11 02:58:50;;;;;;;2.65;0.75;;;19.50;99.90;;;;;;5064717;28;20203;-78
2023/08/11 03:01:20;;;;;;;1.50;0.50;;;19.60;99.90;;;;;;5055237;28;20198;-78
2023/08/11 03:03:52;;;;;;;1.73;0.60;;;19.60;99.90;;;;;;5058992;28;20242;-78
2023/08/11 03:06:23;;;;;;;2.13;0.65;;;19.60;99.90;;;;;;5065534;28;20217;-79
2023/08/11 03:08:54;;;;;;;1.25;0.75;;;19.40;99.90;;;;;;5052815;28;20194;-79
2023/08/11 03:11:26;;;;;;;2.78;0.60;;;19.40;99.90;;;;;;5056340;28;20208;-78
2023/08/11 03:13:57;;;;;;;0.85;0.60;;;19.40;99.90;;;;;;5059989;28;20654;-77
2023/08/11 03:16:29;;;;;;;2.10;0.50;;;19.60;99.90;;;;;;5053714;28;20204;-78
2023/08/11 03:19:00;;;;;;;1.75;0.52;;;19.70;99.90;;;;;;5055930;28;20645;-79
2023/08/11 03:21:31;;;;;;;2.50;0.40;;;19.70;99.90;;;;;;5066669;28;20204;-78
2023/08/11 03:24:02;;;;;;;2.33;0.70;;;19.80;99.90;;;;;;5053823;28;20300;-75
2023/08/11 03:26:35;;;;;;;1.75;0.52;;;19.90;99.90;;;;;;5054961;28;20319;-79
2023/08/11 03:29:07;;;;;;;2.05;0.47;;;19.90;99.90;;;;;;5057701;28;20193;-79
2023/08/11 03:31:38;;;;;;;1.73;0.40;;;19.90;99.90;;;;;;5058103;28;20209;-78
2023/08/11 03:34:09;;;;;;;4.18;1.05;;;19.90;99.90;;;;;;5059641;28;20197;-79
2023/08/11 03:36:40;;;;;;;0.60;0.40;;;19.90;99.90;;;;;;5054474;28;20233;-78
2023/08/11 03:39:12;;;;;;;2.38;0.60;;;19.90;99.90;;;;;;5059719;28;20236;-78
2023/08/11 03:41:45;;;;;;;2.35;0.52;;;19.90;99.90;;;;;;5057434;28;20758;-80
2023/08/11 03:44:16;;;;;;;1.58;0.50;;;20.00;99.90;;;;;;5056042;28;20198;-79
2023/08/11 03:46:47;;;;;;;1.25;0.80;;;20.00;99.90;;;;;;5056925;28;20240;-78
2023/08/11 03:49:19;;;;;;;1.65;0.70;;;19.90;99.90;;;;;;5055472;28;20193;-78
2023/08/11 03:51:50;;;;;;;0.95;0.40;;;19.80;99.90;;;;;;5059685;28;20200;-78
2023/08/11 03:54:21;;;;;;;0.98;0.40;;;19.80;99.90;;;;;;5060505;28;20291;-79
2023/08/11 03:56:54;;;;;;;1.52;0.50;;;19.80;99.90;;;;;;5065591;28;20197;-78
2023/08/11 03:59:26;;;;;;;0.82;0.40;;;19.90;99.90;;;;;;5063352;28;20197;-80
2023/08/11 04:01:57;;;;;;;0.77;0.50;;;19.90;99.90;;;;;;5055847;28;20197;-80
2023/08/11 04:04:28;;;;;;;2.97;0.40;;;20.00;99.90;;;;;;5060291;28;20228;-78
2023/08/11 04:06:58;;;;;;;2.03;0.50;;;20.00;99.90;;;;;;5071275;28;20216;-80
2023/08/11 04:09:29;;;;;;;1.60;0.40;;;19.90;99.90;;;;;;5058063;28;20189;-77
2023/08/11 04:12:02;;;;;;;2.70;0.80;;;20.00;99.90;;;;;;5074459;28;20275;-78
2023/08/11 04:14:33;;;;;;;2.05;0.47;;;19.90;99.90;;;;;;5066739;28;20208;-78
2023/08/11 04:17:04;;;;;;;0.93;0.50;;;19.90;99.90;;;;;;5072450;28;20204;-79
2023/08/11 04:19:34;;;;;;;1.00;0.60;;;19.90;99.90;;;;;;5066990;28;20189;-78
2023/08/11 04:22:05;;;;;;;2.15;0.55;;;19.90;99.90;;;;;;5059654;28;20228;-78
2023/08/11 04:24:36;;;;;;;1.67;0.40;;;19.80;99.90;;;;;;5073682;28;20220;-78
2023/08/11 04:27:09;;;;;;;1.77;0.55;;;19.70;99.90;;;;;;5067369;28;20706;-79
2023/08/11 04:29:40;;;;;;;1.65;0.50;;;19.60;99.90;;;;;;5055153;28;20235;-78
2023/08/11 04:32:11;;;;;;;0.90;0.30;;;19.70;99.90;;;;;;5066139;28;20196;-75
2023/08/11 04:34:42;;;;;;;1.38;0.40;;;19.70;99.90;;;;;;5071427;28;20650;-78
2023/08/11 04:37:13;;;;;;;2.35;0.60;;;19.60;99.90;;;;;;5052952;28;20194;-79
2023/08/11 04:39:44;;;;;;;2.08;0.50;;;19.70;99.90;;;;;;5055896;28;20198;-80
2023/08/11 04:42:17;;;;;;;0.43;0.32;;;19.60;99.90;;;;;;5052526;28;20657;-80
2023/08/11 04:44:51;;;;;;;1.75;0.30;;;19.80;99.90;;;;;;5053593;28;20190;-81
2023/08/11 04:47:22;;;;;;;1.85;0.35;;;19.80;99.90;;;;;;5053556;28;20315;-81
2023/08/11 04:49:52;;;;;;;2.63;0.60;;;19.80;99.90;;;;;;5052872;28;20676;-81
2023/08/11 04:52:24;;;;;;;1.48;0.40;;;19.90;99.90;;;;;;5052752;28;20288;-74
2023/08/11 04:54:54;;;;;;;3.90;0.60;;;19.90;99.90;;;;;;5062349;28;20284;-81
2023/08/11 04:57:27;;;;;;;3.20;0.52;;;19.90;99.90;;;;;;5055396;28;20874;-77
2023/08/11 04:59:58;;;;;;;2.35;0.75;;;19.90;99.90;;;;;;5060051;28;20616;-78
2023/08/11 05:02:28;;;;;;;3.47;0.70;;;19.80;99.90;;;;;;5073229;28;20189;-75
2023/08/11 05:04:59;;;;;;;3.67;0.70;;;19.70;99.90;;;;;;5071962;28;20282;-79
2023/08/11 05:07:30;;;;;;;2.25;0.80;;;19.50;99.90;;;;;;5060532;28;20217;-78
2023/08/11 05:10:01;;;;;;;2.42;0.75;;;19.30;99.90;;;;;;5059871;28;20193;-79
2023/08/11 05:12:34;;;;;;;3.83;0.80;;;19.10;99.90;;;;;;5073485;28;20197;-80
2023/08/11 05:15:05;;;;;;;3.45;0.70;;;19.10;99.90;;;;;;5064744;28;20202;-79
2023/08/11 05:17:36;;;;;;;2.30;0.60;;;19.10;99.90;;;;;;5054271;28;20247;-79
2023/08/11 05:20:08;;;;;;;1.60;0.70;;;19.00;99.90;;;;;;5060880;28;20674;-79
2023/08/11 05:22:39;;;;;;;4.30;0.77;;;18.90;99.90;;;;;;5068114;28;20197;-78
2023/08/11 05:25:11;;;;;;;6.85;0.93;;;18.90;99.90;;;;;;5056560;28;20281;-78
2023/08/11 05:27:44;;;;;;;2.60;0.70;;;18.90;99.90;;;;;;5053602;28;20573;-78
2023/08/11 05:30:15;;;;;;;2.55;0.65;;;18.80;99.90;;;;;;5062496;28;20201;-79
2023/08/11 05:32:45;;;;;;;2.65;0.90;;;18.80;99.90;;;;;;5052856;28;20345;-78
2023/08/11 05:35:17;;;;;;;3.70;0.95;;;18.80;99.90;;;;;;5052563;28;20574;-78
2023/08/11 05:37:48;;;;;;;2.65;0.75;;;18.80;99.90;;;;;;5052474;28;20227;-76
2023/08/11 05:40:19;;;;;;;2.88;0.70;;;18.80;99.90;;;;;;5061237;28;20192;-77
2023/08/11 05:42:52;;;;;;;1.75;0.60;;;18.80;99.90;;;;;;5052655;28;20738;-74
2023/08/11 05:45:23;;;;;;;1.65;0.52;;;18.80;99.90;;;;;;5062812;28;20280;-78
2023/08/11 05:47:54;;;;;;;4.05;0.70;;;18.70;99.90;;;;;;5052962;28;20692;-78
2023/08/11 05:50:24;;;;;;;3.42;0.60;;;18.70;99.90;;;;;;5053033;28;20197;-76
2023/08/11 05:52:56;;;;;;;2.55;0.80;;;18.60;99.90;;;;;;5050276;28;20310;-78
2023/08/11 05:55:27;;;;;;;2.42;0.68;;;18.50;99.90;;;;;;5053069;28;20190;-79
2023/08/11 05:58:00;;;;;;;2.42;0.70;;;18.50;99.90;;;;;;5053251;28;20573;-78
2023/08/11 06:00:30;;;;;;;4.60;0.88;;;18.50;99.90;;;;;;5053256;28;20272;-77
2023/08/11 06:03:01;;;;;;;2.85;0.70;;;18.50;99.90;;;;;;5072556;28;20708;-78
2023/08/11 06:05:32;;;;;;;2.60;0.60;;;18.40;99.90;;;;;;5065591;28;20193;-78
2023/08/11 06:08:03;;;;;;;3.03;0.88;;;18.40;99.90;;;;;;5061653;28;20681;-79
2023/08/11 06:10:34;;;;;;;2.35;0.80;;;18.30;99.90;;;;;;5052207;28;20308;-78
2023/08/11 06:13:07;;;;;;;2.47;0.70;;;18.30;99.90;;;;;;5072469;28;20207;-74
2023/08/11 06:15:37;;;;;;;3.05;0.80;;;18.30;99.90;;;;;;5066324;28;20280;-77
2023/08/11 06:18:08;;;;;;;4.50;0.70;;;18.20;99.90;;;;;;5065883;28;20203;-78
2023/08/11 06:20:39;;;;;;;3.20;0.80;;;18.20;99.90;;;;;;5064419;28;20194;-78
2023/08/11 06:23:10;;;;;;;3.35;0.80;;;18.10;99.90;;;;;;5063901;28;20193;-77
2023/08/11 06:25:41;;;;;;;3.10;0.70;;;18.10;99.90;;;;;;5051808;28;20210;-77
2023/08/11 06:28:14;;;;;;;1.77;0.63;;;18.10;99.90;;;;;;5052802;28;20221;-78
2023/08/11 06:30:45;;;;;;;2.30;0.82;;;18.10;99.90;;;;;;5052303;28;20220;-77
2023/08/11 06:33:16;;;;;;;2.15;0.80;;;18.10;99.90;;;;;;5051690;28;20188;-77
2023/08/11 06:35:46;;;;;;;2.20;0.70;;;18.10;99.90;;;;;;5052517;28;20225;-78
2023/08/11 06:38:17;;;;;;;3.40;0.95;;;18.10;99.90;;;;;;5051513;28;20194;-77
2023/08/11 06:40:50;;;;;;;3.30;0.60;;;18.00;99.90;;;;;;5052823;28;20278;-77
2023/08/11 06:43:23;;;;;;;4.40;0.70;;;18.00;99.90;;;;;;5052369;28;20626;-73
2023/08/11 06:45:53;;;;;;;4.32;1.00;;;17.90;99.90;;;;;;5052383;28;20555;-74
2023/08/11 06:48:24;;;;;;;3.25;1.10;;;17.80;99.90;;;;;;5054654;28;20221;-74
2023/08/11 06:50:56;;;;;;;3.92;1.75;;;17.60;99.90;;;;;;5072312;28;20211;-73
2023/08/11 06:53:27;;;;;;;2.83;1.70;;;17.50;99.90;;;;;;5072596;28;20667;-73
2023/08/11 06:55:57;;;;;;;2.08;1.10;;;17.40;99.90;;;;;;5072723;28;20207;-73
2023/08/11 06:58:30;;;;;;;2.95;0.80;;;17.30;99.90;;;;;;5072396;28;20194;-74
2023/08/11 07:01:01;;;;;;;4.03;1.05;;;17.30;99.90;;;;;;5072535;28;20189;-74
2023/08/11 07:03:33;;;;;;;2.90;1.00;;;17.20;99.90;;;;;;5072267;28;20607;-77
2023/08/11 07:06:04;;;;;;;4.68;1.40;;;17.10;99.90;;;;;;5075187;28;20200;-77
2023/08/11 07:08:35;;;;;;;6.35;1.20;;;17.00;99.90;;;;;;5075729;28;20217;-77
2023/08/11 07:11:06;;;;;;;2.25;0.90;;;16.90;99.90;;;;;;5075809;28;20220;-77
2023/08/11 07:13:38;;;;;;;3.70;1.00;;;16.80;99.90;;;;;;5075566;28;20221;-77
2023/08/11 07:16:09;;;;;;;3.05;0.80;;;16.70;99.90;;;;;;5075921;28;20215;-77
2023/08/11 07:18:40;;;;;;;3.83;0.85;;;16.60;99.90;;;;;;5076112;28;20228;-78
2023/08/11 07:21:11;;;;;;;2.05;0.90;;;16.50;99.90;;;;;;5075669;28;20711;-77
2023/08/11 07:23:41;;;;;;;2.42;0.85;;;16.40;99.90;;;;;;5075478;28;20574;-77
2023/08/11 07:26:12;;;;;;;2.60;0.70;;;16.40;99.90;;;;;;5075579;28;20216;-77
2023/08/11 07:28:45;;;;;;;3.33;0.80;;;16.30;99.90;;;;;;5074326;28;20227;-77
2023/08/11 07:31:16;;;;;;;3.80;1.02;;;16.20;99.90;;;;;;5074798;28;20652;-77
2023/08/11 07:33:46;;;;;;;2.55;1.20;;;16.20;99.90;;;;;;5075518;28;20224;-77
2023/08/11 07:36:17;;;;;;;2.88;1.33;;;16.20;99.90;;;;;;5075368;28;20185;-77
2023/08/11 07:38:48;;;;;;;1.50;1.10;;;16.10;99.90;;;;;;5075412;28;20189;-77
2023/08/11 07:41:19;;;;;;;2.42;0.90;;;16.00;99.90;;;;;;5074962;28;20600;-77
2023/08/11 07:43:51;;;;;;;1.85;0.98;;;15.90;99.90;;;;;;5066520;28;20275;-77
2023/08/11 07:46:22;;;;;;;2.63;0.90;;;15.90;99.90;;;;;;5059928;28;20201;-78
2023/08/11 07:48:53;;;;;;;4.25;0.95;;;15.90;99.90;;;;;;5066918;28;20220;-77
2023/08/11 07:51:24;;;;;;;2.28;0.90;;;15.80;99.90;;;;;;5060284;28;20216;-78
2023/08/11 07:53:54;;;;;;;4.15;0.93;;;15.80;99.90;;;;;;5059427;28;20198;-77
2023/08/11 07:56:25;;;;;;;2.15;1.00;;;15.70;99.90;;;;;;5066537;28;20208;-79
2023/08/11 07:58:58;;;;;;;3.45;1.20;;;15.70;99.90;;;;;;5053818;28;20213;-79
2023/08/11 08:01:29;;;;;;;3.15;1.15;;;15.60;99.90;;;;;;5062098;28;20198;-79
2023/08/11 08:04:00;;;;;;;2.28;1.17;;;15.60;99.90;;;;;;5059310;28;20263;-79
2023/08/11 08:06:30;;;;;;;2.17;1.10;;;15.60;99.90;;;;;;5067379;28;20230;-79
2023/08/11 08:09:02;;;;;;;4.15;1.00;;;15.50;99.90;;;;;;5070201;28;20217;-78
2023/08/11 08:11:33;;;;;;;2.58;1.00;;;15.50;99.90;;;;;;5058085;28;20189;-79
2023/08/11 08:14:06;;;;;;;3.05;0.95;;;15.40;99.90;;;;;;5057350;28;20215;-80
2023/08/11 08:16:37;;;;;;;3.05;1.08;;;15.40;99.90;;;;;;5063054;28;20206;-79
2023/08/11 08:19:08;;;;;;;2.05;0.90;;;15.40;99.90;;;;;;5064622;28;20193;-77
2023/08/11 08:21:38;;;;;;;1.98;1.00;;;15.30;99.90;;;;;;5066055;28;20189;-78
2023/08/11 08:24:10;;;;;;;2.13;0.90;;;15.30;99.90;;;;;;5070036;28;20573;-79
2023/08/11 08:26:40;;;;;;;5.05;1.08;;;15.30;99.90;;;;;;5061748;28;20204;-77
2023/08/11 08:29:13;;;;;;;2.67;1.00;;;15.20;99.90;;;;;;5056418;28;20300;-78
2023/08/11 08:31:44;;;;;;;4.93;1.30;;;15.20;99.90;;;;;;5061154;28;20280;-79
2023/08/11 08:34:15;;;;;;;2.97;1.33;;;15.10;99.90;;;;;;5065671;28;20625;-76
2023/08/11 08:36:46;;;;;;;3.08;1.20;;;15.10;99.90;;;;;;5052435;28;20213;-77
2023/08/11 08:39:17;;;;;;;2.95;0.98;;;15.00;99.90;;;;;;5056267;28;20194;-79
2023/08/11 08:41:48;;;;;;;3.00;1.20;;;15.00;99.90;;;;;;5071327;28;20193;-79
2023/08/11 08:44:22;;;;;;;1.80;0.90;;;15.00;99.90;;;;;;5057969;28;20204;-79
2023/08/11 08:46:55;;;;;;;3.83;0.90;;;15.00;99.90;;;;;;5060458;28;20201;-77
2023/08/11 08:49:28;;;;;;;1.48;0.90;;;14.90;99.90;;;;;;5059778;28;20227;-77
2023/08/11 08:52:00;;;;;;;2.72;1.13;;;14.90;99.90;;;;;;5067140;28;20263;-80
2023/08/11 08:54:31;;;;;;;1.75;0.90;;;14.80;99.90;;;;;;5058487;28;20208;-79
2023/08/11 08:57:03;;;;;;;4.72;1.10;;;14.80;99.90;;;;;;5064380;28;20203;-79
2023/08/11 08:59:36;;;;;;;4.10;1.30;;;14.80;99.90;;;;;;5059419;28;20197;-80
2023/08/11 09:02:07;;;;;;;3.10;1.30;;;14.70;99.90;;;;;;5059248;28;20211;-79
2023/08/11 09:04:38;;;;;;;2.72;1.20;;;14.70;99.90;;;;;;5060027;28;20198;-80
2023/08/11 09:07:09;;;;;;;1.88;1.23;;;14.70;99.90;;;;;;5065290;28;20660;-79
2023/08/11 09:09:39;;;;;;;3.28;1.15;;;14.70;99.90;;;;;;5059773;28;20236;-76
2023/08/11 09:12:10;;;;;;;3.65;1.30;;;14.60;99.90;;;;;;5055482;28;20198;-76
2023/08/11 09:14:44;;;;;;;3.97;1.30;;;14.60;99.90;;;;;;5057391;28;20584;-74
2023/08/11 09:17:15;;;;;;;2.13;1.10;;;14.60;99.90;;;;;;5064361;28;20189;-74
2023/08/11 09:19:50;;;;;;;3.20;1.30;;;14.60;99.90;;;;;;5060052;28;20263;-76
2023/08/11 09:22:27;;;;;;;2.78;1.50;;;14.50;99.90;;;;;;5067671;28;20197;-76
2023/08/11 09:24:57;;;;;;;2.08;1.30;;;14.50;99.90;;;;;;5062516;28;20200;-79
2023/08/11 09:27:30;;;;;;;3.25;1.10;;;14.50;99.90;;;;;;5065718;28;20203;-79
2023/08/11 09:30:03;;;;;;;2.83;1.17;;;14.40;99.90;;;;;;5060253;28;20693;-78
2023/08/11 09:32:35;;;;;;;2.78;1.20;;;14.40;99.90;;;;;;5063334;28;20209;-79
2023/08/11 09:35:12;;;;;;;2.28;1.20;;;14.40;99.90;;;;;;5058850;28;20285;-79
2023/08/11 09:37:46;;;;;;;2.53;1.10;;;14.30;99.90;;;;;;5068966;28;20603;-79
2023/08/11 09:40:17;;;;;;;2.78;1.10;;;14.30;99.90;;;;;;5073003;28;20204;-80
2023/08/11 09:42:48;;;;;;;2.15;1.20;;;14.30;99.90;;;;;;5059486;28;20198;-81
2023/08/11 09:45:21;;;;;;;3.42;1.20;;;14.30;99.90;;;;;;5062977;28;20224;-80
2023/08/11 09:47:52;;;;;;;4.72;1.30;;;14.20;99.90;;;;;;5068919;28;20203;-81
2023/08/11 09:50:24;;;;;;;2.95;1.08;;;14.20;99.90;;;;;;5060388;28;20219;-80
2023/08/11 09:52:56;;;;;;;2.80;1.35;;;14.20;99.90;;;;;;5053676;28;20658;-80
2023/08/11 09:55:28;;;;;;;3.05;1.25;;;14.20;99.90;;;;;;5054789;28;20612;-80
2023/08/11 09:58:01;;;;;;;4.47;1.30;;;14.10;99.90;;;;;;5073068;28;20196;-81
2023/08/11 10:00:34;;;;;;;4.15;1.42;;;14.10;99.90;;;;;;5072161;28;20197;-78
2023/08/11 10:03:09;;;;;;;2.00;1.20;;;14.10;99.90;;;;;;5058482;28;20233;-80
2023/08/11 10:05:44;;;;;;;2.92;1.20;;;14.10;99.90;;;;;;5070296;28;20232;-80
2023/08/11 10:08:19;;;;;;;3.95;1.30;;;14.10;99.90;;;;;;5065877;28;20645;-79
2023/08/11 10:10:50;;;;;;;3.15;1.00;;;14.10;99.90;;;;;;5064332;28;20197;-80
2023/08/11 10:13:25;;;;;;;5.07;1.20;;;14.10;99.90;;;;;;5071574;28;20219;-79
2023/08/11 10:15:58;;;;;;;3.03;1.38;;;14.10;99.90;;;;;;5059911;28;20193;-79
2023/08/11 10:18:31;;;;;;;2.92;1.60;;;14.10;99.90;;;;;;5059332;28;20197;-80
2023/08/11 10:21:02;;;;;;;3.60;1.73;;;14.10;99.90;;;;;;5071445;28;20197;-80
2023/08/11 10:23:34;;;;;;;3.28;1.48;;;14.00;99.90;;;;;;5061463;28;20196;-77
2023/08/11 10:26:05;;;;;;;3.25;1.70;;;14.00;99.90;;;;;;5062952;28;20194;-79
2023/08/11 10:28:39;;;;;;;3.55;1.80;;;14.00;99.90;;;;;;5069648;28;20605;-79
2023/08/11 10:31:12;;;;;;;3.42;2.50;;;14.00;99.90;;;;;;5064969;28;20258;-77
2023/08/11 10:33:49;;;;;;;2.53;1.98;;;14.00;99.90;;;;;;5058067;28;20232;-79
2023/08/11 10:36:23;;;;;;;4.30;1.70;;;14.00;99.90;;;;;;5060409;28;20200;-79
2023/08/11 10:39:08;;;;;;;2.95;2.05;;;14.00;99.90;;;;;;5071092;28;20197;-80
2023/08/11 10:41:39;;;;;;;4.03;2.08;;;13.90;99.90;;;;;;5063467;28;20196;-78
2023/08/11 10:44:10;;;;;;;5.65;2.40;;;13.90;99.90;;;;;;5067225;28;20196;-80
2023/08/11 10:46:44;;;;;;;6.53;2.35;;;13.90;99.90;;;;;;5060278;28;20202;-80
2023/08/11 10:49:34;;;;;;;3.30;2.42;;;13.90;99.90;;;;;;5061537;28;20339;-79
2023/08/11 10:52:07;;;;;;;3.70;2.40;;;13.90;99.90;;;;;;5061260;28;20201;-79
2023/08/11 10:54:38;;;;;;;4.13;2.33;;;13.80;99.90;;;;;;5063637;28;20193;-78
2023/08/11 10:57:09;;;;;;;4.25;1.98;;;13.80;99.90;;;;;;5075002;28;20674;-80
2023/08/11 10:59:40;;;;;;;4.13;2.03;;;13.80;99.90;;;;;;5073872;28;20197;-81
2023/08/11 11:02:14;;;;;;;3.25;1.80;;;13.70;99.90;;;;;;5064859;28;20193;-80
2023/08/11 11:04:45;;;;;;;3.80;2.00;;;13.70;99.90;;;;;;5075545;28;20201;-81
2023/08/11 11:07:16;;;;;;;4.20;1.90;;;13.60;99.90;;;;;;5063046;28;20281;-81
2023/08/11 11:09:47;;;;;;;3.80;2.20;;;13.50;99.90;;;;;;5054589;28;20312;-81
2023/08/11 11:12:18;;;;;;;4.13;1.70;;;13.40;99.90;;;;;;5057523;28;20223;-81
2023/08/11 11:14:49;;;;;;;3.80;1.60;;;13.30;99.90;;;;;;5053757;28;20193;-81
2023/08/11 11:17:22;;;;;;;3.38;1.67;;;13.20;99.90;;;;;;5055772;28;20190;-81
2023/08/11 11:19:53;;;;;;;3.40;1.52;;;13.20;99.90;;;;;;5058334;28;20207;-80
2023/08/11 11:22:29;;;;;;;6.63;1.95;;;13.10;99.90;;;;;;5066890;28;20204;-81
2023/08/11 11:25:03;;;;;;;3.58;2.05;;;13.10;99.90;;;;;;5069604;28;20189;-80
2023/08/11 11:27:33;;;;;;;4.55;1.67;;;13.10;99.90;;;;;;5068464;28;20204;-81
2023/08/11 11:30:05;;;;;;;5.15;2.20;;;13.10;99.90;;;;;;5075134;28;20307;-80
2023/08/11 11:32:37;;;;;;;4.05;2.13;;;13.00;99.90;;;;;;5071239;28;20225;-78
2023/08/11 11:35:09;;;;;;;3.25;2.10;;;13.50;99.90;;;;;;5053427;28;20193;-81
2023/08/11 11:37:40;;;;;;;2.90;1.80;;;12.90;99.90;;;;;;5053274;28;20201;-81
2023/08/11 11:40:13;;;;;;;6.07;2.10;;;12.90;99.90;;;;;;5055135;28;20198;-81
2023/08/11 11:42:46;;;;;;;5.35;1.83;;;12.90;99.90;;;;;;5061774;28;20280;-80
2023/08/11 11:45:17;;;;;;;4.00;2.00;;;12.80;99.90;;;;;;5064878;28;20197;-81
2023/08/11 11:47:51;;;;;;;3.95;1.80;;;12.80;99.90;;;;;;5054366;28;20255;-81
2023/08/11 11:50:21;;;;;;;4.85;1.70;;;12.80;99.90;;;;;;5060591;28;20220;-81
2023/08/11 11:52:53;;;;;;;2.63;1.30;;;12.70;99.90;;;;;;5065718;28;20207;-81
2023/08/11 11:55:24;;;;;;;3.40;1.48;;;12.60;99.90;;;;;;5054290;28;20277;-81
2023/08/11 11:57:54;;;;;;;2.35;1.40;;;12.60;99.90;;;;;;5055111;28;20673;-81
2023/08/11 12:00:27;;;;;;;4.80;1.40;;;12.50;99.90;;;;;;5058083;28;20536;-81
2023/08/11 12:03:00;;;;;;;4.10;1.73;;;12.50;99.90;;;;;;5054623;28;20229;-81
2023/08/11 12:05:31;;;;;;;3.63;1.55;;;12.50;99.90;;;;;;5062159;28;20207;-80
2023/08/11 12:08:02;;;;;;;3.20;1.80;;;12.40;99.90;;;;;;5074976;28;20668;-80
2023/08/11 12:10:37;;;;;;;3.53;1.70;;;12.30;99.90;;;;;;5074662;28;20222;-81
2023/08/11 12:13:08;;;;;;;2.08;1.50;;;12.30;99.90;;;;;;5061357;28;20203;-80
2023/08/11 12:15:39;;;;;;;5.95;2.08;;;12.30;99.90;;;;;;5061057;28;20201;-80
2023/08/11 12:18:13;;;;;;;4.18;2.20;;;12.30;99.90;;;;;;5074441;28;20189;-80
2023/08/11 12:20:44;;;;;;;4.18;2.35;;;12.20;99.90;;;;;;5064527;28;20200;-81
2023/08/11 12:23:15;;;;;;;3.92;1.85;;;12.20;99.90;;;;;;5055396;28;20189;-79
2023/08/11 12:25:46;;;;;;;2.97;1.70;;;12.20;99.90;;;;;;5058133;28;20189;-79
2023/08/11 12:28:17;;;;;;;3.70;2.00;;;12.30;99.90;;;;;;5067983;28;20197;-80
2023/08/11 12:30:48;;;;;;;4.07;2.30;;;12.30;99.90;;;;;;5063272;28;20252;-79
2023/08/11 12:33:21;;;;;;;3.80;1.88;;;12.30;99.90;;;;;;5065117;28;20213;-79
2023/08/11 12:35:52;;;;;;;4.35;1.98;;;12.30;99.90;;;;;;5059287;28;20659;-80
2023/08/11 12:38:23;;;;;;;3.65;1.75;;;12.30;99.90;;;;;;5069833;28;20207;-79
2023/08/11 12:40:53;;;;;;;3.80;1.90;;;12.30;99.90;;;;;;5054879;28;20211;-80
2023/08/11 12:43:24;;;;;;;3.85;1.88;;;12.20;99.90;;;;;;5054193;28;20641;-78
2023/08/11 12:45:55;;;;;;;6.47;2.45;;;12.20;99.90;;;;;;5054173;28;20664;-79
2023/08/11 12:48:28;;;;;;;5.20;2.75;;;12.20;99.90;;;;;;5054268;28;20641;-78
2023/08/11 12:50:58;;;;;;;4.28;2.10;;;12.20;99.90;;;;;;5088654;28;20304;-77
2023/08/11 12:53:29;;;;;;;4.00;1.95;;;12.10;99.90;;;;;;5094271;28;20184;-80
2023/08/11 12:56:00;;;;;;;5.45;2.15;;;12.10;99.90;;;;;;5076021;28;20220;-78
2023/08/11 12:58:31;;;;;;;3.95;2.10;;;12.10;99.90;;;;;;5059041;28;20287;-79
2023/08/11 13:01:02;;;;;;;3.28;2.00;;;12.10;99.90;;;;;;5072512;28;20205;-79
2023/08/11 13:03:35;;;;;;;4.32;1.90;;;12.10;99.90;;;;;;5068028;28;20324;-79
2023/08/11 13:06:06;;;;;;;4.88;2.00;;;12.10;99.90;;;;;;5064864;28;20280;-80
2023/08/11 13:08:37;;;;;;;3.95;2.00;;;12.10;99.90;;;;;;5053257;28;20198;-79
2023/08/11 13:11:07;;;;;;;4.45;2.10;;;12.00;99.90;;;;;;5059014;28;20213;-80